D/T METAR WX W/DIR W/SPE G/SPE TEMP DEWP
23/05/19 13:20 EGCC 231220Z AUTO 28006KT 230V330 9999 FEW040 18/07 Q1016 NOSIG W (280°) 6.9mph 18°C 7°C
23/05/19 12:50 EGCC 231150Z AUTO 26006KT 230V310 9999 SCT039 17/07 Q1016 NOSIG W (260°) 6.9mph 17°C 7°C
23/05/19 12:20 EGCC 231120Z AUTO 27007KT 210V300 9999 NCD 17/06 Q1016 NOSIG W (270°) 8.1mph 17°C 6°C
23/05/19 11:50 EGCC 231050Z AUTO 28006KT 9999 NCD 16/07 Q1016 NOSIG W (280°) 6.9mph 16°C 7°C
23/05/19 11:20 EGCC 231020Z AUTO 25004KT 170V290 9999 NCD 16/08 Q1016 NOSIG WSW (250°) 4.6mph 16°C 8°C
23/05/19 10:50 EGCC 230950Z AUTO 24004KT 160V290 9999 NCD 15/07 Q1016 NOSIG WSW (240°) 4.6mph 15°C 7°C
23/05/19 10:20 EGCC 230920Z AUTO 23004KT 170V260 9999 NCD 14/08 Q1016 NOSIG SW (230°) 4.6mph 14°C 8°C
23/05/19 09:50 EGCC 230850Z AUTO 22004KT 150V240 9999 NCD 14/08 Q1016 NOSIG SW (220°) 4.6mph 14°C 8°C
23/05/19 09:20 EGCC 230820Z AUTO 19005KT 150V230 9999 NCD 13/08 Q1017 NOSIG S (190°) 5.8mph 13°C 8°C
23/05/19 08:50 EGCC 230750Z AUTO 19004KT 140V220 9999 NCD 12/09 Q1017 NOSIG S (190°) 4.6mph 12°C 9°C
23/05/19 08:20 EGCC 230720Z AUTO VRB02KT 9999 NCD 11/08 Q1017 NOSIG N (0°) 2.3mph 11°C 8°C
23/05/19 07:50 EGCC 230650Z AUTO VRB02KT 9999 NCD 10/08 Q1017 N (0°) 2.3mph 10°C 8°C
23/05/19 07:20 EGCC 230620Z AUTO VRB02KT 9999 NCD 10/08 Q1017 NOSIG N (0°) 2.3mph 10°C 8°C
23/05/19 06:50 EGCC 230550Z AUTO VRB01KT 9999 NCD 09/08 Q1017 N (0°) 1.2mph 9°C 8°C
23/05/19 06:20 EGCC 230520Z VRB03KT 6000 NSC 09/08 Q1016 NOSIG N (0°) 3.5mph 9°C 8°C
23/05/19 05:50 EGCC 230450Z VRB02KT 6000 NSC 08/08 Q1016 N (0°) 2.3mph 8°C 8°C
23/05/19 05:20 EGCC 230420Z VRB03KT 7000 NSC 08/08 Q1016 N (0°) 3.5mph 8°C 8°C
23/05/19 04:50 EGCC 230350Z 17003KT 7000 NSC 08/07 Q1016 NOSIG S (170°) 3.5mph 8°C 7°C
23/05/19 04:20 EGCC 230320Z 16003KT 8000 NSC 08/07 Q1016 NOSIG SSE (160°) 3.5mph 8°C 7°C
23/05/19 03:50 EGCC 230250Z VRB02KT 9000 NSC 07/06 Q1017 N (0°) 2.3mph 7°C 6°C
23/05/19 03:20 EGCC 230220Z VRB02KT CAVOK 07/07 Q1017 NOSIG N (0°) 2.3mph 7°C 7°C
23/05/19 02:50 EGCC 230150Z AUTO 17003KT 7000 NCD 08/07 Q1017 S (170°) 3.5mph 8°C 7°C
23/05/19 02:20 EGCC 230120Z AUTO 14003KT 9999 NCD 08/07 Q1017 NOSIG SE (140°) 3.5mph 8°C 7°C
23/05/19 01:50 EGCC 230050Z AUTO 16003KT 9999 NCD 07/06 Q1017 SSE (160°) 3.5mph 7°C 6°C
23/05/19 01:20 EGCC 230020Z AUTO 13002KT 9999 NCD 09/07 Q1017 SE (130°) 2.3mph 9°C 7°C
23/05/19 00:50 EGCC 222350Z AUTO VRB02KT 9999 NCD 09/07 Q1017 NOSIG N (0°) 2.3mph 9°C 7°C
23/05/19 00:20 EGCC 222320Z AUTO 20002KT 9999 NCD 09/07 Q1017 NOSIG SSW (200°) 2.3mph 9°C 7°C
22/05/19 23:50 EGCC 222250Z AUTO VRB02KT 9999 NCD 11/07 Q1017 NOSIG N (0°) 2.3mph 11°C 7°C
22/05/19 23:20 EGCC 222220Z AUTO 28003KT 9999 NCD 12/08 Q1018 NOSIG W (280°) 3.5mph 12°C 8°C
22/05/19 22:50 EGCC 222150Z AUTO 28005KT 9999 NCD 12/08 Q1018 NOSIG W (280°) 5.8mph 12°C 8°C
22/05/19 22:20 EGCC 222120Z AUTO 27003KT 9999 NCD 12/08 Q1018 NOSIG W (270°) 3.5mph 12°C 8°C
22/05/19 21:50 EGCC 222050Z AUTO 29004KT 9999 NCD 13/08 Q1018 NOSIG WNW (290°) 4.6mph 13°C 8°C
22/05/19 21:20 EGCC 222020Z AUTO 28004KT 9999 NCD 13/08 Q1018 NOSIG W (280°) 4.6mph 13°C 8°C
22/05/19 20:50 EGCC 221950Z AUTO 28005KT 9999 NCD 14/08 Q1018 NOSIG W (280°) 5.8mph 14°C 8°C
22/05/19 20:20 EGCC 221920Z AUTO 27006KT 9999 NCD 14/08 Q1018 NOSIG W (270°) 6.9mph 14°C 8°C
22/05/19 19:50 EGCC 221850Z AUTO 30007KT 9999 NCD 15/08 Q1018 WNW (300°) 8.1mph 15°C 8°C
22/05/19 19:20 EGCC 221820Z AUTO 30008KT 9999 NCD 15/08 Q1018 NOSIG WNW (300°) 9.2mph 15°C 8°C
22/05/19 18:50 EGCC 221750Z AUTO 29006KT 9999 NCD 15/08 Q1018 WNW (290°) 6.9mph 15°C 8°C
22/05/19 17:50 EGCC 221650Z 29009KT 9999 FEW031 15/09 Q1018 WNW (290°) 10.4mph 15°C 9°C
22/05/19 17:20 EGCC 221620Z 28011KT 9999 FEW031 16/08 Q1018 W (280°) 12.7mph 16°C 8°C
22/05/19 16:50 EGCC 221550Z 30010KT 9999 FEW031 16/09 Q1018 WNW (300°) 11.5mph 16°C 9°C
22/05/19 16:20 EGCC 221520Z 28010KT 9999 FEW033TCU 17/09 Q1018 NOSIG W (280°) 11.5mph 17°C 9°C
22/05/19 15:50 EGCC 221450Z AUTO 27009KT 9999 BKN032 BKN047 16/08 Q1018 NOSIG W (270°) 10.4mph 16°C 8°C
22/05/19 15:20 EGCC 221420Z AUTO 27009KT 9999 SCT037 17/08 Q1018 NOSIG W (270°) 10.4mph 17°C 8°C
22/05/19 14:50 EGCC 221350Z 27009KT 9999 SCT033 BKN044 17/08 Q1018 W (270°) 10.4mph 17°C 8°C
22/05/19 14:20 EGCC 221320Z AUTO 26009KT 220V310 1000 HZ SCT032 SCT041 17/09 Q1018 HZ W (260°) 10.4mph 17°C 9°C
22/05/19 13:50 EGCC 221250Z AUTO 27007KT 230V310 2900 -RA BKN034 BKN044 16/08 Q1018 -RA W (270°) 8.1mph 16°C 8°C
22/05/19 13:20 EGCC 221220Z AUTO 25006KT 1400 RA BKN033 BKN043 15/08 Q1019 RA WSW (250°) 6.9mph 15°C 8°C